sensor_id;sensor_type;location;lat;lon;timestamp;pressure;altitude;pressure_sealevel;temperature;humidity
38716;BME280;24833;49.324;8.694;2024-03-02T00:01:16;98583.94;;;7.17;84.97
38716;BME280;24833;49.324;8.694;2024-03-02T00:03:43;98585.78;;;7.17;85.08
38716;BME280;24833;49.324;8.694;2024-03-02T00:06:11;98587.63;;;7.16;85.04
38716;BME280;24833;49.324;8.694;2024-03-02T00:08:38;98586.81;;;7.16;85.06
38716;BME280;24833;49.324;8.694;2024-03-02T00:11:05;98581.50;;;7.16;84.82
38716;BME280;24833;49.324;8.694;2024-03-02T00:13:33;98585.16;;;7.15;85.08
38716;BME280;24833;49.324;8.694;2024-03-02T00:16:00;98583.53;;;7.14;85.30
38716;BME280;24833;49.324;8.694;2024-03-02T00:18:34;98577.41;;;7.13;85.45
38716;BME280;24833;49.324;8.694;2024-03-02T00:21:03;98578.63;;;7.10;85.43
38716;BME280;24833;49.324;8.694;2024-03-02T00:23:33;98573.31;;;7.10;85.52
38716;BME280;24833;49.324;8.694;2024-03-02T00:26:02;98576.19;;;7.09;85.36
38716;BME280;24833;49.324;8.694;2024-03-02T00:28:34;98571.88;;;7.08;85.53
38716;BME280;24833;49.324;8.694;2024-03-02T00:31:07;98573.94;;;7.06;85.65
38716;BME280;24833;49.324;8.694;2024-03-02T00:33:44;98563.53;;;7.04;85.52
38716;BME280;24833;49.324;8.694;2024-03-02T00:36:27;98566.38;;;7.03;85.83
38716;BME280;24833;49.324;8.694;2024-03-02T00:38:54;98570.88;;;7.02;85.82
38716;BME280;24833;49.324;8.694;2024-03-02T00:41:29;98573.72;;;7.01;85.96
38716;BME280;24833;49.324;8.694;2024-03-02T00:44:04;98578.19;;;7.00;85.83
38716;BME280;24833;49.324;8.694;2024-03-02T00:46:37;98578.41;;;6.99;86.00
38716;BME280;24833;49.324;8.694;2024-03-02T00:49:05;98579.44;;;6.98;86.07
38716;BME280;24833;49.324;8.694;2024-03-02T00:51:39;98575.16;;;6.97;86.54
38716;BME280;24833;49.324;8.694;2024-03-02T00:54:08;98570.88;;;6.96;86.48
38716;BME280;24833;49.324;8.694;2024-03-02T00:56:35;98573.69;;;6.94;86.50
38716;BME280;24833;49.324;8.694;2024-03-02T00:59:02;98574.72;;;6.93;86.69
38716;BME280;24833;49.324;8.694;2024-03-02T01:01:30;98576.56;;;6.93;86.60
38716;BME280;24833;49.324;8.694;2024-03-02T01:03:57;98581.06;;;6.92;86.98
38716;BME280;24833;49.324;8.694;2024-03-02T01:06:24;98582.91;;;6.92;86.95
38716;BME280;24833;49.324;8.694;2024-03-02T01:08:51;98574.94;;;6.92;87.21
38716;BME280;24833;49.324;8.694;2024-03-02T01:11:20;98579.63;;;6.90;87.16
38716;BME280;24833;49.324;8.694;2024-03-02T01:13:50;98584.94;;;6.90;87.47
38716;BME280;24833;49.324;8.694;2024-03-02T01:16:17;98581.66;;;6.88;87.42
38716;BME280;24833;49.324;8.694;2024-03-02T01:18:44;98581.03;;;6.86;87.55
38716;BME280;24833;49.324;8.694;2024-03-02T01:21:12;98583.69;;;6.86;87.38
38716;BME280;24833;49.324;8.694;2024-03-02T01:23:39;98578.81;;;6.82;87.53
38716;BME280;24833;49.324;8.694;2024-03-02T01:26:06;98595.72;;;6.81;87.46
38716;BME280;24833;49.324;8.694;2024-03-02T01:28:34;98588.78;;;6.80;87.52
38716;BME280;24833;49.324;8.694;2024-03-02T01:31:01;98596.13;;;6.78;87.44
38716;BME280;24833;49.324;8.694;2024-03-02T01:33:29;98599.00;;;6.77;87.69
38716;BME280;24833;49.324;8.694;2024-03-02T01:35:56;98596.53;;;6.75;87.58
38716;BME280;24833;49.324;8.694;2024-03-02T01:38:23;98588.75;;;6.74;87.73
38716;BME280;24833;49.324;8.694;2024-03-02T01:40:50;98589.78;;;6.73;87.88
38716;BME280;24833;49.324;8.694;2024-03-02T01:43:18;98575.91;;;6.71;87.67
38716;BME280;24833;49.324;8.694;2024-03-02T01:45:45;98579.59;;;6.70;87.69
38716;BME280;24833;49.324;8.694;2024-03-02T01:48:12;98584.09;;;6.69;87.74
38716;BME280;24833;49.324;8.694;2024-03-02T01:50:40;98574.47;;;6.68;87.69
38716;BME280;24833;49.324;8.694;2024-03-02T01:53:09;98571.19;;;6.66;87.95
38716;BME280;24833;49.324;8.694;2024-03-02T01:55:36;98569.56;;;6.65;87.87
38716;BME280;24833;49.324;8.694;2024-03-02T01:58:03;98564.47;;;6.64;87.83
38716;BME280;24833;49.324;8.694;2024-03-02T02:00:31;98559.38;;;6.62;87.90
38716;BME280;24833;49.324;8.694;2024-03-02T02:02:59;98562.22;;;6.61;88.16
38716;BME280;24833;49.324;8.694;2024-03-02T02:05:26;98558.75;;;6.60;88.01
38716;BME280;24833;49.324;8.694;2024-03-02T02:07:53;98555.47;;;6.58;88.44
38716;BME280;24833;49.324;8.694;2024-03-02T02:10:20;98551.19;;;6.57;88.27
38716;BME280;24833;49.324;8.694;2024-03-02T02:12:47;98550.56;;;6.55;88.63
38716;BME280;24833;49.324;8.694;2024-03-02T02:15:31;98557.53;;;6.56;88.59
38716;BME280;24833;49.324;8.694;2024-03-02T02:17:58;98553.22;;;6.55;89.03
38716;BME280;24833;49.324;8.694;2024-03-02T02:20:26;98540.97;;;6.54;88.84
38716;BME280;24833;49.324;8.694;2024-03-02T02:23:04;98536.69;;;6.53;89.05
38716;BME280;24833;49.324;8.694;2024-03-02T02:25:32;98536.69;;;6.53;88.90
38716;BME280;24833;49.324;8.694;2024-03-02T02:27:59;98533.22;;;6.52;89.20
38716;BME280;24833;49.324;8.694;2024-03-02T02:30:30;98536.09;;;6.51;89.31
38716;BME280;24833;49.324;8.694;2024-03-02T02:32:58;98528.34;;;6.49;88.94
38716;BME280;24833;49.324;8.694;2024-03-02T02:35:26;98538.13;;;6.49;89.05
38716;BME280;24833;49.324;8.694;2024-03-02T02:37:54;98531.16;;;6.48;89.19
38716;BME280;24833;49.324;8.694;2024-03-02T02:40:22;98528.72;;;6.46;89.16
38716;BME280;24833;49.324;8.694;2024-03-02T02:42:49;98529.53;;;6.47;88.88
38716;BME280;24833;49.324;8.694;2024-03-02T02:45:19;98530.75;;;6.44;89.08
38716;BME280;24833;49.324;8.694;2024-03-02T02:47:46;98533.63;;;6.43;88.94
38716;BME280;24833;49.324;8.694;2024-03-02T02:50:13;98522.38;;;6.41;89.25
38716;BME280;24833;49.324;8.694;2024-03-02T02:52:42;98519.13;;;6.39;89.16
38716;BME280;24833;49.324;8.694;2024-03-02T02:55:11;98514.84;;;6.38;89.14
38716;BME280;24833;49.324;8.694;2024-03-02T02:57:40;98522.19;;;6.36;89.17
38716;BME280;24833;49.324;8.694;2024-03-02T03:00:12;98520.53;;;6.35;89.26
38716;BME280;24833;49.324;8.694;2024-03-02T03:02:47;98514.59;;;6.33;89.65
38716;BME280;24833;49.324;8.694;2024-03-02T03:05:16;98511.34;;;6.31;89.37
38716;BME280;24833;49.324;8.694;2024-03-02T03:07:43;98520.31;;;6.30;89.48
38716;BME280;24833;49.324;8.694;2024-03-02T03:10:17;98516.00;;;6.28;89.63
38716;BME280;24833;49.324;8.694;2024-03-02T03:12:44;98515.41;;;6.26;89.89
38716;BME280;24833;49.324;8.694;2024-03-02T03:15:11;98513.78;;;6.25;90.14
38716;BME280;24833;49.324;8.694;2024-03-02T03:17:40;98514.78;;;6.24;90.07
38716;BME280;24833;49.324;8.694;2024-03-02T03:20:07;98521.13;;;6.23;90.20
38716;BME280;24833;49.324;8.694;2024-03-02T03:22:38;98512.34;;;6.23;89.93
38716;BME280;24833;49.324;8.694;2024-03-02T03:25:06;98516.19;;;6.20;90.20
38716;BME280;24833;49.324;8.694;2024-03-02T03:27:35;98511.91;;;6.19;90.40
38716;BME280;24833;49.324;8.694;2024-03-02T03:30:03;98516.41;;;6.19;90.48
38716;BME280;24833;49.324;8.694;2024-03-02T03:32:30;98508.66;;;6.17;90.59
38716;BME280;24833;49.324;8.694;2024-03-02T03:34:57;98511.50;;;6.16;90.58
38716;BME280;24833;49.324;8.694;2024-03-02T03:37:24;98506.38;;;6.14;90.36
38716;BME280;24833;49.324;8.694;2024-03-02T03:39:53;98505.78;;;6.12;90.45
38716;BME280;24833;49.324;8.694;2024-03-02T03:42:20;98507.81;;;6.10;90.41
38716;BME280;24833;49.324;8.694;2024-03-02T03:44:47;98500.88;;;6.09;90.49
38716;BME280;24833;49.324;8.694;2024-03-02T03:47:14;98508.19;;;6.07;90.76
38716;BME280;24833;49.324;8.694;2024-03-02T03:49:41;98498.63;;;6.06;90.81
38716;BME280;24833;49.324;8.694;2024-03-02T03:52:08;98494.34;;;6.05;90.82
38716;BME280;24833;49.324;8.694;2024-03-02T03:54:36;98492.91;;;6.03;90.78
38716;BME280;24833;49.324;8.694;2024-03-02T03:57:05;98496.56;;;6.01;91.47
38716;BME280;24833;49.324;8.694;2024-03-02T03:59:32;98507.34;;;6.00;91.44
38716;BME280;24833;49.324;8.694;2024-03-02T04:02:00;98501.25;;;5.99;91.58
38716;BME280;24833;49.324;8.694;2024-03-02T04:04:27;98510.22;;;5.98;91.38
38716;BME280;24833;49.324;8.694;2024-03-02T04:06:54;98507.78;;;5.97;91.78
38716;BME280;24833;49.324;8.694;2024-03-02T04:09:21;98500.84;;;5.96;91.91
38716;BME280;24833;49.324;8.694;2024-03-02T04:11:48;98499.19;;;5.95;92.01
38716;BME280;24833;49.324;8.694;2024-03-02T04:14:15;98507.13;;;5.95;92.13
38716;BME280;24833;49.324;8.694;2024-03-02T04:16:42;98506.31;;;5.94;92.23
38716;BME280;24833;49.324;8.694;2024-03-02T04:19:10;98502.03;;;5.93;92.07
38716;BME280;24833;49.324;8.694;2024-03-02T04:21:37;98502.25;;;5.92;92.33
38716;BME280;24833;49.324;8.694;2024-03-02T04:24:04;98507.53;;;5.92;92.41
38716;BME280;24833;49.324;8.694;2024-03-02T04:26:31;98504.25;;;5.90;92.64
38716;BME280;24833;49.324;8.694;2024-03-02T04:28:58;98512.19;;;5.90;92.79
38716;BME280;24833;49.324;8.694;2024-03-02T04:31:25;98516.50;;;5.91;92.80
38716;BME280;24833;49.324;8.694;2024-03-02T04:33:52;98507.91;;;5.89;93.07
38716;BME280;24833;49.324;8.694;2024-03-02T04:36:20;98503.59;;;5.88;92.95
38716;BME280;24833;49.324;8.694;2024-03-02T04:38:48;98511.38;;;5.89;93.43
38716;BME280;24833;49.324;8.694;2024-03-02T04:41:15;98508.91;;;5.88;93.43
38716;BME280;24833;49.324;8.694;2024-03-02T04:43:42;98511.38;;;5.89;93.49
38716;BME280;24833;49.324;8.694;2024-03-02T04:46:09;98508.91;;;5.88;93.35
38716;BME280;24833;49.324;8.694;2024-03-02T04:48:37;98507.91;;;5.89;93.24
38716;BME280;24833;49.324;8.694;2024-03-02T04:51:05;98521.97;;;5.89;93.95
38716;BME280;24833;49.324;8.694;2024-03-02T04:53:32;98511.53;;;5.88;93.69
38716;BME280;24833;49.324;8.694;2024-03-02T04:55:59;98520.50;;;5.87;93.61
38716;BME280;24833;49.324;8.694;2024-03-02T04:58:44;98512.56;;;5.87;93.55
38716;BME280;24833;49.324;8.694;2024-03-02T05:01:11;98519.09;;;5.84;93.35
38716;BME280;24833;49.324;8.694;2024-03-02T05:03:38;98515.63;;;5.84;93.34
38716;BME280;24833;49.324;8.694;2024-03-02T05:06:05;98512.97;;;5.84;93.48
38716;BME280;24833;49.324;8.694;2024-03-02T05:08:32;98514.00;;;5.83;93.34
38716;BME280;24833;49.324;8.694;2024-03-02T05:10:59;98518.47;;;5.82;93.44
38716;BME280;24833;49.324;8.694;2024-03-02T05:13:46;98526.41;;;5.82;93.48
38716;BME280;24833;49.324;8.694;2024-03-02T05:16:14;98536.38;;;5.80;93.27
38716;BME280;24833;49.324;8.694;2024-03-02T05:18:41;98539.22;;;5.79;93.35
38716;BME280;24833;49.324;8.694;2024-03-02T05:21:08;98540.44;;;5.76;93.17
38716;BME280;24833;49.324;8.694;2024-03-02T05:23:35;98536.97;;;5.76;92.70
38716;BME280;24833;49.324;8.694;2024-03-02T05:26:02;98539.78;;;5.74;92.88
38716;BME280;24833;49.324;8.694;2024-03-02T05:28:29;98535.50;;;5.73;92.91
38716;BME280;24833;49.324;8.694;2024-03-02T05:30:56;98541.84;;;5.72;93.11
38716;BME280;24833;49.324;8.694;2024-03-02T05:33:24;98539.38;;;5.70;92.94
38716;BME280;24833;49.324;8.694;2024-03-02T05:35:51;98536.75;;;5.70;93.22
38716;BME280;24833;49.324;8.694;2024-03-02T05:38:18;98540.19;;;5.71;93.20
38716;BME280;24833;49.324;8.694;2024-03-02T05:40:45;98542.84;;;5.71;93.15
38716;BME280;24833;49.324;8.694;2024-03-02T05:43:12;98545.50;;;5.71;93.27
38716;BME280;24833;49.324;8.694;2024-03-02T05:45:39;98544.69;;;5.70;92.90
38716;BME280;24833;49.324;8.694;2024-03-02T05:48:07;98543.88;;;5.70;93.38
38716;BME280;24833;49.324;8.694;2024-03-02T05:50:35;98546.50;;;5.70;93.10
38716;BME280;24833;49.324;8.694;2024-03-02T05:53:02;98553.66;;;5.69;93.21
38716;BME280;24833;49.324;8.694;2024-03-02T05:55:29;98544.88;;;5.69;92.93
38716;BME280;24833;49.324;8.694;2024-03-02T05:57:56;98542.22;;;5.69;93.00
38716;BME280;24833;49.324;8.694;2024-03-02T06:00:46;98548.34;;;5.69;93.05
38716;BME280;24833;49.324;8.694;2024-03-02T06:03:13;98538.56;;;5.70;93.12
38716;BME280;24833;49.324;8.694;2024-03-02T06:05:40;98546.72;;;5.68;93.17
38716;BME280;24833;49.324;8.694;2024-03-02T06:08:07;98533.66;;;5.67;93.13
38716;BME280;24833;49.324;8.694;2024-03-02T06:10:34;98544.25;;;5.67;93.02
38716;BME280;24833;49.324;8.694;2024-03-02T06:13:01;98525.91;;;5.65;93.20
38716;BME280;24833;49.324;8.694;2024-03-02T06:15:28;98535.06;;;5.63;93.15
38716;BME280;24833;49.324;8.694;2024-03-02T06:17:56;98538.72;;;5.62;93.24
38716;BME280;24833;49.324;8.694;2024-03-02T06:20:23;98554.78;;;5.60;93.22
38716;BME280;24833;49.324;8.694;2024-03-02T06:22:50;98551.53;;;5.58;93.32
38716;BME280;24833;49.324;8.694;2024-03-02T06:25:17;98553.56;;;5.56;93.44
38716;BME280;24833;49.324;8.694;2024-03-02T06:27:44;98563.34;;;5.56;93.59
38716;BME280;24833;49.324;8.694;2024-03-02T06:30:12;98563.50;;;5.54;93.45
38716;BME280;24833;49.324;8.694;2024-03-02T06:32:39;98558.41;;;5.53;93.47
38716;BME280;24833;49.324;8.694;2024-03-02T06:35:09;98554.94;;;5.52;93.54
38716;BME280;24833;49.324;8.694;2024-03-02T06:37:38;98558.41;;;5.53;93.56
38716;BME280;24833;49.324;8.694;2024-03-02T06:40:10;98567.38;;;5.52;93.73
38716;BME280;24833;49.324;8.694;2024-03-02T06:42:37;98569.19;;;5.51;93.67
38716;BME280;24833;49.324;8.694;2024-03-02T06:45:05;98568.38;;;5.51;93.79
38716;BME280;24833;49.324;8.694;2024-03-02T06:47:32;98573.69;;;5.51;93.73
38716;BME280;24833;49.324;8.694;2024-03-02T06:49:59;98567.56;;;5.50;93.83
38716;BME280;24833;49.324;8.694;2024-03-02T06:52:26;98555.97;;;5.51;94.16
38716;BME280;24833;49.324;8.694;2024-03-02T06:54:53;98555.16;;;5.51;94.00
38716;BME280;24833;49.324;8.694;2024-03-02T06:57:21;98562.06;;;5.52;94.27
38716;BME280;24833;49.324;8.694;2024-03-02T06:59:48;98558.41;;;5.53;93.89
38716;BME280;24833;49.324;8.694;2024-03-02T07:02:18;98560.03;;;5.54;94.18
38716;BME280;24833;49.324;8.694;2024-03-02T07:04:47;98569.63;;;5.55;94.41
38716;BME280;24833;49.324;8.694;2024-03-02T07:07:15;98575.56;;;5.57;94.33
38716;BME280;24833;49.324;8.694;2024-03-02T07:09:43;98545.41;;;5.58;94.26
38716;BME280;24833;49.324;8.694;2024-03-02T07:12:10;98560.28;;;5.59;94.36
38716;BME280;24833;49.324;8.694;2024-03-02T07:14:37;98565.38;;;5.60;94.58
38716;BME280;24833;49.324;8.694;2024-03-02T07:17:23;98574.13;;;5.61;94.53
38716;BME280;24833;49.324;8.694;2024-03-02T07:20:02;98564.19;;;5.63;94.62
38716;BME280;24833;49.324;8.694;2024-03-02T07:22:33;98571.13;;;5.64;94.92
38716;BME280;24833;49.324;8.694;2024-03-02T07:25:00;98575.19;;;5.66;94.94
38716;BME280;24833;49.324;8.694;2024-03-02T07:27:27;98571.53;;;5.67;94.91
38716;BME280;24833;49.324;8.694;2024-03-02T07:29:54;98563.41;;;5.69;94.95
38716;BME280;24833;49.324;8.694;2024-03-02T07:32:22;98580.75;;;5.71;95.34
38716;BME280;24833;49.324;8.694;2024-03-02T07:34:49;98579.72;;;5.72;95.41
38716;BME280;24833;49.324;8.694;2024-03-02T07:37:20;98582.16;;;5.74;95.10
38716;BME280;24833;49.324;8.694;2024-03-02T07:39:51;98594.22;;;5.77;95.22
38716;BME280;24833;49.324;8.694;2024-03-02T07:42:19;98592.19;;;5.79;95.29
38716;BME280;24833;49.324;8.694;2024-03-02T07:44:46;98583.84;;;5.82;95.63
38716;BME280;24833;49.324;8.694;2024-03-02T07:47:13;98588.56;;;5.86;95.69
38716;BME280;24833;49.324;8.694;2024-03-02T07:49:40;98592.47;;;5.90;95.79
38716;BME280;24833;49.324;8.694;2024-03-02T07:52:07;98588.06;;;5.97;95.78
38716;BME280;24833;49.324;8.694;2024-03-02T07:54:34;98582.81;;;6.04;95.75
38716;BME280;24833;49.324;8.694;2024-03-02T07:57:01;98590.78;;;6.11;95.94
38716;BME280;24833;49.324;8.694;2024-03-02T07:59:28;98595.09;;;6.18;96.39
38716;BME280;24833;49.324;8.694;2024-03-02T08:01:55;98588.59;;;6.27;96.55
38716;BME280;24833;49.324;8.694;2024-03-02T08:04:23;98595.19;;;6.38;96.65
38716;BME280;24833;49.324;8.694;2024-03-02T08:06:51;98600.53;;;6.51;96.87
38716;BME280;24833;49.324;8.694;2024-03-02T08:09:18;98601.41;;;6.65;97.16
38716;BME280;24833;49.324;8.694;2024-03-02T08:11:45;98596.94;;;6.79;97.52
38716;BME280;24833;49.324;8.694;2024-03-02T08:14:12;98597.78;;;6.93;97.58
38716;BME280;24833;49.324;8.694;2024-03-02T08:16:39;98593.13;;;7.08;97.75
38716;BME280;24833;49.324;8.694;2024-03-02T08:19:07;98604.38;;;7.23;97.69
38716;BME280;24833;49.324;8.694;2024-03-02T08:21:35;98593.13;;;7.41;98.15
38716;BME280;24833;49.324;8.694;2024-03-02T08:24:03;98586.41;;;7.58;98.18
38716;BME280;24833;49.324;8.694;2024-03-02T08:26:30;98596.59;;;7.75;98.13
38716;BME280;24833;49.324;8.694;2024-03-02T08:28:59;98607.59;;;7.91;98.53
38716;BME280;24833;49.324;8.694;2024-03-02T08:31:28;98599.19;;;8.08;98.41
38716;BME280;24833;49.324;8.694;2024-03-02T08:33:55;98593.41;;;8.24;98.45
38716;BME280;24833;49.324;8.694;2024-03-02T08:36:23;98598.06;;;8.42;98.77
38716;BME280;24833;49.324;8.694;2024-03-02T08:38:51;98591.47;;;8.58;98.82
38716;BME280;24833;49.324;8.694;2024-03-02T08:41:18;98599.97;;;8.73;98.80
38716;BME280;24833;49.324;8.694;2024-03-02T08:43:45;98601.31;;;8.89;98.66
38716;BME280;24833;49.324;8.694;2024-03-02T08:46:12;98588.75;;;9.02;98.54
38716;BME280;24833;49.324;8.694;2024-03-02T08:48:42;98591.72;;;9.19;98.39
38716;BME280;24833;49.324;8.694;2024-03-02T08:51:09;98586.88;;;9.35;98.00
38716;BME280;24833;49.324;8.694;2024-03-02T08:53:37;98599.88;;;9.49;97.70
38716;BME280;24833;49.324;8.694;2024-03-02T08:56:05;98595.84;;;9.65;97.27
38716;BME280;24833;49.324;8.694;2024-03-02T08:58:33;98597.13;;;9.81;97.36
38716;BME280;24833;49.324;8.694;2024-03-02T09:01:00;98593.91;;;9.97;96.94
38716;BME280;24833;49.324;8.694;2024-03-02T09:03:27;98589.03;;;10.13;96.69
38716;BME280;24833;49.324;8.694;2024-03-02T09:05:55;98595.66;;;10.28;96.72
38716;BME280;24833;49.324;8.694;2024-03-02T09:08:22;98598.16;;;10.42;96.39
38716;BME280;24833;49.324;8.694;2024-03-02T09:10:49;98588.13;;;10.55;96.46
38716;BME280;24833;49.324;8.694;2024-03-02T09:13:33;98582.63;;;10.69;95.80
38716;BME280;24833;49.324;8.694;2024-03-02T09:16:00;98584.78;;;10.78;95.59
38716;BME280;24833;49.324;8.694;2024-03-02T09:18:28;98586.06;;;10.87;95.57
38716;BME280;24833;49.324;8.694;2024-03-02T09:20:55;98588.78;;;10.99;95.33
38716;BME280;24833;49.324;8.694;2024-03-02T09:23:22;98581.03;;;11.09;94.89
38716;BME280;24833;49.324;8.694;2024-03-02T09:25:49;98572.69;;;11.17;94.83
38716;BME280;24833;49.324;8.694;2024-03-02T09:28:16;98580.94;;;11.28;94.61
38716;BME280;24833;49.324;8.694;2024-03-02T09:30:43;98570.53;;;11.38;94.64
38716;BME280;24833;49.324;8.694;2024-03-02T09:33:10;98581.44;;;11.48;94.44
38716;BME280;24833;49.324;8.694;2024-03-02T09:35:40;98568.34;;;11.58;94.04
38716;BME280;24833;49.324;8.694;2024-03-02T09:38:07;98571.22;;;11.68;93.91
38716;BME280;24833;49.324;8.694;2024-03-02T09:40:35;98583.22;;;11.78;93.31
38716;BME280;24833;49.324;8.694;2024-03-02T09:43:03;98586.63;;;11.85;92.81
38716;BME280;24833;49.324;8.694;2024-03-02T09:45:30;98582.78;;;11.92;92.54
38716;BME280;24833;49.324;8.694;2024-03-02T09:47:58;98586.72;;;12.02;91.99
38716;BME280;24833;49.324;8.694;2024-03-02T09:50:25;98589.63;;;12.12;91.86
38716;BME280;24833;49.324;8.694;2024-03-02T09:52:52;98576.69;;;12.20;91.77
38716;BME280;24833;49.324;8.694;2024-03-02T09:55:20;98584.09;;;12.30;91.78
38716;BME280;24833;49.324;8.694;2024-03-02T09:57:47;98587.25;;;12.39;91.54
38716;BME280;24833;49.324;8.694;2024-03-02T10:00:17;98584.19;;;12.47;91.45
38716;BME280;24833;49.324;8.694;2024-03-02T10:02:44;98579.50;;;12.54;91.28
38716;BME280;24833;49.324;8.694;2024-03-02T10:05:11;98579.94;;;12.63;91.45
38716;BME280;24833;49.324;8.694;2024-03-02T10:07:39;98579.09;;;12.74;90.93
38716;BME280;24833;49.324;8.694;2024-03-02T10:10:14;98578.44;;;12.83;90.14
38716;BME280;24833;49.324;8.694;2024-03-02T10:12:42;98570.06;;;12.92;89.88
38716;BME280;24833;49.324;8.694;2024-03-02T10:15:09;98567.78;;;13.00;89.58
38716;BME280;24833;49.324;8.694;2024-03-02T10:17:37;98576.25;;;13.09;89.52
38716;BME280;24833;49.324;8.694;2024-03-02T10:20:24;98575.97;;;13.22;88.64
38716;BME280;24833;49.324;8.694;2024-03-02T10:22:51;98571.84;;;13.31;88.53
38716;BME280;24833;49.324;8.694;2024-03-02T10:25:33;98569.81;;;13.39;87.91
38716;BME280;24833;49.324;8.694;2024-03-02T10:28:04;98563.78;;;13.48;88.02
38716;BME280;24833;49.324;8.694;2024-03-02T10:30:35;98565.25;;;13.56;87.75
38716;BME280;24833;49.324;8.694;2024-03-02T10:33:03;98562.13;;;13.64;87.94
38716;BME280;24833;49.324;8.694;2024-03-02T10:35:33;98559.06;;;13.72;87.44
38716;BME280;24833;49.324;8.694;2024-03-02T10:38:05;98559.19;;;13.82;87.36
38716;BME280;24833;49.324;8.694;2024-03-02T10:40:33;98566.59;;;13.92;87.33
38716;BME280;24833;49.324;8.694;2024-03-02T10:43:01;98565.91;;;14.02;86.71
38716;BME280;24833;49.324;8.694;2024-03-02T10:45:32;98559.03;;;14.11;86.55
38716;BME280;24833;49.324;8.694;2024-03-02T10:48:02;98564.00;;;14.19;85.90
38716;BME280;24833;49.324;8.694;2024-03-02T10:50:33;98556.56;;;14.26;85.97
38716;BME280;24833;49.324;8.694;2024-03-02T10:53:00;98562.88;;;14.37;85.95
38716;BME280;24833;49.324;8.694;2024-03-02T10:55:28;98554.16;;;14.47;85.55
38716;BME280;24833;49.324;8.694;2024-03-02T10:57:57;98554.25;;;14.57;85.26
38716;BME280;24833;49.324;8.694;2024-03-02T11:00:32;98549.81;;;14.67;85.14
38716;BME280;24833;49.324;8.694;2024-03-02T11:03:07;98544.53;;;14.78;85.22
38716;BME280;24833;49.324;8.694;2024-03-02T11:05:40;98541.72;;;14.89;84.84
38716;BME280;24833;49.324;8.694;2024-03-02T11:08:16;98546.69;;;15.03;84.88
38716;BME280;24833;49.324;8.694;2024-03-02T11:11:07;98543.31;;;15.17;84.67
38716;BME280;24833;49.324;8.694;2024-03-02T11:13:37;98541.00;;;15.31;84.34
38716;BME280;24833;49.324;8.694;2024-03-02T11:16:48;98549.25;;;15.51;84.53
38716;BME280;24833;49.324;8.694;2024-03-02T11:19:23;98541.84;;;15.69;84.61
38716;BME280;24833;49.324;8.694;2024-03-02T11:21:52;98540.31;;;15.83;84.70
38716;BME280;24833;49.324;8.694;2024-03-02T11:26:57;98538.06;;;16.17;84.22
38716;BME280;24833;49.324;8.694;2024-03-02T11:32:26;98525.53;;;16.48;83.32
38716;BME280;24833;49.324;8.694;2024-03-02T11:34:52;98519.66;;;16.61;82.42
38716;BME280;24833;49.324;8.694;2024-03-02T11:37:24;98514.31;;;16.77;80.73
38716;BME280;24833;49.324;8.694;2024-03-02T11:39:52;98501.13;;;16.91;79.79
38716;BME280;24833;49.324;8.694;2024-03-02T11:42:19;98502.75;;;17.07;79.70
38716;BME280;24833;49.324;8.694;2024-03-02T11:44:50;98503.03;;;17.26;80.05
38716;BME280;24833;49.324;8.694;2024-03-02T11:47:17;98498.69;;;17.50;81.38
38716;BME280;24833;49.324;8.694;2024-03-02T11:49:51;98484.59;;;17.79;82.97
38716;BME280;24833;49.324;8.694;2024-03-02T11:52:19;98485.88;;;18.07;84.34
38716;BME280;24833;49.324;8.694;2024-03-02T11:54:47;98477.09;;;18.35;85.38
38716;BME280;24833;49.324;8.694;2024-03-02T11:57:22;98481.78;;;18.64;86.49
38716;BME280;24833;49.324;8.694;2024-03-02T11:59:50;98480.28;;;18.92;87.08
38716;BME280;24833;49.324;8.694;2024-03-02T12:02:26;98485.47;;;19.22;88.00
38716;BME280;24833;49.324;8.694;2024-03-02T12:04:53;98470.81;;;19.52;88.16
38716;BME280;24833;49.324;8.694;2024-03-02T12:07:22;98465.69;;;19.80;87.95
38716;BME280;24833;49.324;8.694;2024-03-02T12:10:00;98466.41;;;20.09;87.64
38716;BME280;24833;49.324;8.694;2024-03-02T12:12:30;98471.81;;;20.33;87.07
38716;BME280;24833;49.324;8.694;2024-03-02T12:14:57;98462.03;;;20.56;86.64
38716;BME280;24833;49.324;8.694;2024-03-02T12:17:27;98462.47;;;20.82;85.89
38716;BME280;24833;49.324;8.694;2024-03-02T12:19:55;98452.06;;;21.03;84.92
38716;BME280;24833;49.324;8.694;2024-03-02T12:22:22;98451.53;;;21.20;84.24
38716;BME280;24833;49.324;8.694;2024-03-02T12:24:53;98464.25;;;21.38;83.37
38716;BME280;24833;49.324;8.694;2024-03-02T12:27:20;98458.06;;;21.52;82.71
38716;BME280;24833;49.324;8.694;2024-03-02T12:29:48;98446.00;;;21.58;81.41
38716;BME280;24833;49.324;8.694;2024-03-02T12:32:15;98445.50;;;21.69;80.60
38716;BME280;24833;49.324;8.694;2024-03-02T12:34:46;98440.06;;;21.83;80.43
38716;BME280;24833;49.324;8.694;2024-03-02T12:37:14;98439.16;;;22.01;79.80
38716;BME280;24833;49.324;8.694;2024-03-02T12:39:45;98437.75;;;22.18;78.72
38716;BME280;24833;49.324;8.694;2024-03-02T12:42:13;98437.53;;;22.28;77.71
38716;BME280;24833;49.324;8.694;2024-03-02T12:44:40;98433.47;;;22.39;77.15
38716;BME280;24833;49.324;8.694;2024-03-02T12:47:07;98426.19;;;22.48;76.30
38716;BME280;24833;49.324;8.694;2024-03-02T12:49:36;98428.06;;;22.62;75.95
38716;BME280;24833;49.324;8.694;2024-03-02T12:52:13;98421.13;;;22.78;75.32
38716;BME280;24833;49.324;8.694;2024-03-02T12:54:40;98415.34;;;22.93;75.02
38716;BME280;24833;49.324;8.694;2024-03-02T12:57:07;98420.91;;;23.10;72.98
38716;BME280;24833;49.324;8.694;2024-03-02T12:59:34;98413.59;;;23.20;70.93
38716;BME280;24833;49.324;8.694;2024-03-02T13:02:01;98418.44;;;23.23;69.22
38716;BME280;24833;49.324;8.694;2024-03-02T13:04:29;98415.88;;;23.26;68.98
38716;BME280;24833;49.324;8.694;2024-03-02T13:06:57;98416.72;;;23.35;68.38
38716;BME280;24833;49.324;8.694;2024-03-02T13:09:24;98409.38;;;23.45;67.16
38716;BME280;24833;49.324;8.694;2024-03-02T13:11:52;98408.31;;;23.54;67.33
38716;BME280;24833;49.324;8.694;2024-03-02T13:14:22;98407.75;;;23.66;67.55
38716;BME280;24833;49.324;8.694;2024-03-02T13:16:51;98405.53;;;23.77;66.48
38716;BME280;24833;49.324;8.694;2024-03-02T13:19:19;98407.94;;;23.78;64.25
38716;BME280;24833;49.324;8.694;2024-03-02T13:21:46;98397.22;;;23.82;63.86